createdAt,value
2019-06-20T00:00:04.812Z,20.90
2019-06-20T00:02:33.291Z,21.00
2019-06-20T00:05:01.962Z,20.90
2019-06-20T00:07:31.285Z,20.70
2019-06-20T00:09:59.719Z,20.30
2019-06-20T00:12:28.222Z,19.90
2019-06-20T00:14:56.651Z,19.50
2019-06-20T00:17:25.104Z,19.10
2019-06-20T00:19:53.535Z,18.80
2019-06-20T00:22:21.953Z,18.50
2019-06-20T00:24:50.424Z,18.30
2019-06-20T00:27:19.052Z,18.20
2019-06-20T00:29:47.603Z,18.00
2019-06-20T00:32:16.886Z,17.90
2019-06-20T00:34:45.418Z,17.90
2019-06-20T00:37:13.868Z,17.80
2019-06-20T00:39:42.310Z,17.80
2019-06-20T00:42:10.829Z,17.80
2019-06-20T00:44:39.326Z,17.70
2019-06-20T00:47:11.473Z,17.70
2019-06-20T00:49:39.901Z,17.60
2019-06-20T00:52:08.319Z,17.50
2019-06-20T00:54:36.772Z,17.60
2019-06-20T00:57:05.200Z,17.50
2019-06-20T00:59:33.668Z,17.40
2019-06-20T01:02:02.167Z,17.20
2019-06-20T01:04:30.829Z,17.20
2019-06-20T01:06:59.279Z,17.40
2019-06-20T01:09:27.791Z,17.40
2019-06-20T01:11:56.367Z,17.60
2019-06-20T01:14:24.792Z,17.50
2019-06-20T01:17:12.582Z,17.40
2019-06-20T01:19:41.012Z,17.30
2019-06-20T01:22:09.480Z,17.20
2019-06-20T01:24:38.027Z,17.10
2019-06-20T01:27:06.587Z,17.20
2019-06-20T01:29:35.020Z,17.10
2019-06-20T01:32:03.652Z,17.00
2019-06-20T01:34:32.174Z,17.00
2019-06-20T01:37:00.647Z,17.10
2019-06-20T01:39:29.099Z,17.00
2019-06-20T01:41:57.514Z,17.00
2019-06-20T01:44:26.103Z,16.90
2019-06-20T01:46:54.568Z,17.00
2019-06-20T01:49:23.088Z,16.90
2019-06-20T01:51:51.678Z,16.80
2019-06-20T01:54:20.214Z,16.80
2019-06-20T01:56:48.638Z,16.80
2019-06-20T01:59:17.083Z,16.80
2019-06-20T02:02:05.011Z,16.80
2019-06-20T02:04:33.471Z,16.70
2019-06-20T02:07:01.945Z,16.70
2019-06-20T02:09:30.409Z,16.70
2019-06-20T02:11:58.898Z,16.70
2019-06-20T02:14:27.330Z,16.70
2019-06-20T02:17:15.228Z,16.70
2019-06-20T02:19:43.738Z,16.70
2019-06-20T02:22:12.325Z,16.70
2019-06-20T02:24:40.832Z,16.70
2019-06-20T02:27:09.306Z,16.70
2019-06-20T02:29:37.795Z,16.70
2019-06-20T02:32:06.347Z,16.70
2019-06-20T02:34:34.861Z,16.70
2019-06-20T02:37:03.306Z,16.70
2019-06-20T02:39:31.735Z,16.80
2019-06-20T02:42:00.174Z,16.70
2019-06-20T02:44:30.644Z,16.70
2019-06-20T02:46:58.907Z,16.70
2019-06-20T02:49:27.448Z,16.70
2019-06-20T02:51:56.431Z,16.60
2019-06-20T02:54:24.986Z,16.50
2019-06-20T02:56:53.429Z,16.50
2019-06-20T02:59:21.930Z,16.60
2019-06-20T03:01:50.514Z,16.40
2019-06-20T03:04:19.044Z,16.50
2019-06-20T03:06:47.570Z,16.50
2019-06-20T03:09:16.109Z,16.60
2019-06-20T03:11:44.654Z,16.60
2019-06-20T03:14:13.161Z,16.60
2019-06-20T03:16:41.757Z,16.60
2019-06-20T03:19:10.184Z,16.60
2019-06-20T03:21:38.625Z,16.60
2019-06-20T03:24:07.140Z,16.60
2019-06-20T03:26:36.474Z,16.50
2019-06-20T03:29:05.326Z,16.60
2019-06-20T03:31:33.788Z,16.60
2019-06-20T03:34:02.306Z,16.60
2019-06-20T03:36:30.842Z,16.60
2019-06-20T03:38:59.302Z,16.70
2019-06-20T03:41:27.826Z,16.80
2019-06-20T03:43:59.004Z,16.90
2019-06-20T03:46:26.423Z,16.90
2019-06-20T03:48:54.857Z,16.90
2019-06-20T03:51:23.289Z,16.90
2019-06-20T03:53:51.726Z,17.00
2019-06-20T03:56:22.819Z,17.10
2019-06-20T03:58:51.254Z,17.10
2019-06-20T04:01:19.714Z,17.20
2019-06-20T04:03:48.171Z,17.20
2019-06-20T04:06:16.634Z,17.30
2019-06-20T04:08:45.158Z,17.40
2019-06-20T04:11:13.627Z,17.40
2019-06-20T04:13:42.083Z,17.50
2019-06-20T04:16:10.601Z,17.50
2019-06-20T04:18:39.050Z,17.60
2019-06-20T04:21:07.485Z,17.60
2019-06-20T04:23:36.009Z,17.60
2019-06-20T04:26:04.515Z,17.60
2019-06-20T04:28:32.942Z,17.60
2019-06-20T04:31:01.404Z,17.60
2019-06-20T04:33:29.937Z,17.60
2019-06-20T04:35:58.417Z,17.70
2019-06-20T04:38:26.891Z,17.70
2019-06-20T04:43:35.345Z,17.80
2019-06-20T04:46:05.480Z,18.00
2019-06-20T04:48:33.934Z,18.00
2019-06-20T04:51:02.427Z,18.10
2019-06-20T04:53:30.891Z,18.10
2019-06-20T04:55:59.355Z,18.00
2019-06-20T04:58:27.805Z,18.00
2019-06-20T05:00:56.291Z,18.00
2019-06-20T05:03:24.773Z,18.10
2019-06-20T05:05:53.219Z,18.40
2019-06-20T05:08:21.786Z,18.60
2019-06-20T05:10:50.194Z,18.80
2019-06-20T05:13:18.691Z,18.80
2019-06-20T05:15:52.565Z,18.80
2019-06-20T05:18:17.317Z,18.90
2019-06-20T05:20:45.838Z,19.00
2019-06-20T05:23:14.289Z,19.10
2019-06-20T05:25:42.753Z,19.20
2019-06-20T05:28:11.180Z,19.30
2019-06-20T05:30:39.638Z,19.50
2019-06-20T05:33:08.220Z,19.70
2019-06-20T05:35:36.857Z,19.80
2019-06-20T05:38:05.281Z,19.80
2019-06-20T05:40:37.113Z,20.00
2019-06-20T05:43:03.927Z,20.20
2019-06-20T05:45:32.379Z,20.40
2019-06-20T05:48:00.792Z,20.20
2019-06-20T05:50:29.340Z,20.30
2019-06-20T05:52:57.918Z,20.70
2019-06-20T05:55:26.435Z,20.80
2019-06-20T05:57:54.866Z,20.90
2019-06-20T06:00:24.246Z,20.70
2019-06-20T06:02:52.855Z,20.70
2019-06-20T06:05:22.746Z,20.60
2019-06-20T06:07:51.271Z,20.50
2019-06-20T06:10:19.955Z,20.50
2019-06-20T06:12:48.464Z,20.60
2019-06-20T06:15:17.457Z,20.70
2019-06-20T06:17:45.951Z,20.60
2019-06-20T06:20:15.041Z,20.50
2019-06-20T06:22:44.747Z,20.50
2019-06-20T06:25:14.205Z,20.50
2019-06-20T06:27:42.728Z,21.00
2019-06-20T06:30:14.506Z,21.00
2019-06-20T06:32:43.074Z,21.00
2019-06-20T06:35:12.089Z,21.10
2019-06-20T06:37:40.838Z,21.10
2019-06-20T06:40:10.538Z,21.50
2019-06-20T06:42:38.974Z,21.90
2019-06-20T06:45:09.276Z,21.90
2019-06-20T06:47:37.830Z,22.00
2019-06-20T06:50:06.813Z,22.20
2019-06-20T06:52:35.427Z,22.60
2019-06-20T06:55:04.749Z,23.20
2019-06-20T06:57:33.187Z,22.90
2019-06-20T07:00:01.620Z,23.10
2019-06-20T07:02:30.102Z,23.00
2019-06-20T07:04:58.579Z,22.70
2019-06-20T07:07:27.045Z,23.00
2019-06-20T07:09:55.545Z,23.70
2019-06-20T07:12:24.073Z,23.40
2019-06-20T07:14:52.508Z,23.00
2019-06-20T07:17:20.977Z,22.60
2019-06-20T07:19:49.421Z,22.50
2019-06-20T07:22:17.858Z,22.10
2019-06-20T07:24:46.338Z,22.20
2019-06-20T07:27:15.293Z,22.20
2019-06-20T07:29:43.838Z,22.40
2019-06-20T07:32:12.345Z,22.40
2019-06-20T07:34:40.781Z,22.30
2019-06-20T07:37:09.211Z,22.60
2019-06-20T07:39:37.711Z,22.60
2019-06-20T07:42:06.411Z,22.90
2019-06-20T07:44:35.002Z,23.30
2019-06-20T07:47:16.690Z,23.00
2019-06-20T07:49:33.777Z,22.50
2019-06-20T07:52:02.322Z,22.30
2019-06-20T07:54:30.785Z,22.60
2019-06-20T07:56:59.319Z,22.40
2019-06-20T07:59:27.814Z,22.40
2019-06-20T08:01:56.254Z,22.40
2019-06-20T08:04:24.743Z,22.80
2019-06-20T08:06:53.266Z,22.70
2019-06-20T08:09:22.207Z,22.50
2019-06-20T08:11:50.941Z,22.90
2019-06-20T08:14:19.544Z,22.90
2019-06-20T08:16:48.191Z,22.80
2019-06-20T08:19:16.807Z,23.00
2019-06-20T08:21:45.402Z,23.00
2019-06-20T08:24:13.893Z,23.50
2019-06-20T08:26:42.436Z,23.90
2019-06-20T08:29:20.634Z,24.00
2019-06-20T08:31:41.215Z,23.70
2019-06-20T08:34:09.708Z,23.70
2019-06-20T08:36:38.158Z,23.80
2019-06-20T08:39:09.102Z,23.90
2019-06-20T08:41:37.739Z,24.30
2019-06-20T08:44:06.758Z,23.80
2019-06-20T08:46:35.532Z,24.30
2019-06-20T08:49:05.690Z,24.10
2019-06-20T08:51:34.507Z,23.60
2019-06-20T08:54:03.421Z,24.30
2019-06-20T08:56:32.120Z,24.60
2019-06-20T08:59:00.807Z,24.60
2019-06-20T09:01:29.862Z,24.90
2019-06-20T09:03:58.696Z,25.10
2019-06-20T09:06:27.255Z,24.40
2019-06-20T09:08:56.710Z,24.80
2019-06-20T09:11:26.055Z,24.60
2019-06-20T09:13:55.465Z,25.00
2019-06-20T09:16:24.900Z,25.00
2019-06-20T09:18:54.941Z,24.70
2019-06-20T09:21:23.822Z,24.70
2019-06-20T09:23:53.834Z,24.90
2019-06-20T09:26:22.661Z,25.20
2019-06-20T09:28:52.725Z,24.80
2019-06-20T09:31:21.466Z,24.10
2019-06-20T09:33:52.093Z,24.20
2019-06-20T09:36:20.384Z,24.90
2019-06-20T09:38:49.049Z,25.50
2019-06-20T09:41:17.555Z,25.20
2019-06-20T09:43:46.067Z,24.70
2019-06-20T09:46:14.606Z,24.50
2019-06-20T09:48:43.202Z,24.40
2019-06-20T09:51:11.646Z,24.10
2019-06-20T09:53:40.105Z,24.30
2019-06-20T09:56:08.588Z,24.10
2019-06-20T09:58:37.040Z,24.10
2019-06-20T10:01:05.517Z,23.80
2019-06-20T10:03:34.177Z,23.80
2019-06-20T10:06:12.933Z,24.00
2019-06-20T10:08:32.868Z,24.70
2019-06-20T10:11:01.476Z,24.90
2019-06-20T10:13:32.678Z,24.30
2019-06-20T10:16:00.209Z,24.10
2019-06-20T10:18:28.705Z,23.90
2019-06-20T10:21:00.409Z,24.10
2019-06-20T10:23:29.065Z,23.90
2019-06-20T10:25:58.228Z,24.00
2019-06-20T10:28:26.969Z,24.70
2019-06-20T10:30:55.421Z,25.20
2019-06-20T10:33:24.073Z,25.30
2019-06-20T10:35:52.686Z,25.00
2019-06-20T10:38:21.287Z,25.90
2019-06-20T10:40:49.872Z,26.00
2019-06-20T10:43:18.400Z,25.60
2019-06-20T10:45:47.471Z,24.60
2019-06-20T10:48:16.048Z,24.30
2019-06-20T10:50:45.677Z,24.30
2019-06-20T10:53:14.281Z,24.60
2019-06-20T10:55:43.358Z,25.40
2019-06-20T10:58:12.409Z,25.60
2019-06-20T11:00:41.717Z,25.10
2019-06-20T11:03:11.082Z,24.70
2019-06-20T11:05:40.883Z,24.40
2019-06-20T11:08:09.783Z,24.10
2019-06-20T11:10:40.381Z,23.90
2019-06-20T11:13:09.407Z,23.80
2019-06-20T11:15:39.247Z,23.70
2019-06-20T11:18:08.266Z,23.90
2019-06-20T11:20:37.846Z,24.10
2019-06-20T11:23:07.062Z,24.20
2019-06-20T11:25:36.921Z,24.20
2019-06-20T11:28:05.759Z,24.00
2019-06-20T11:30:48.030Z,24.00
2019-06-20T11:33:05.170Z,24.40
2019-06-20T11:35:35.902Z,24.00
2019-06-20T11:38:04.500Z,24.00
2019-06-20T11:40:33.080Z,24.50
2019-06-20T11:43:01.659Z,24.90
2019-06-20T11:45:30.217Z,25.10
2019-06-20T11:47:58.746Z,25.00
2019-06-20T11:50:27.244Z,24.80
2019-06-20T11:52:55.920Z,24.80
2019-06-20T11:55:26.072Z,25.20
2019-06-20T11:57:54.745Z,25.50
2019-06-20T12:00:23.395Z,25.90
2019-06-20T12:02:52.062Z,26.40
2019-06-20T12:05:20.998Z,26.00
2019-06-20T12:07:50.023Z,26.20
2019-06-20T12:10:19.070Z,26.00
2019-06-20T12:12:48.988Z,26.20
2019-06-20T12:15:18.623Z,26.10
2019-06-20T12:17:47.790Z,25.70
2019-06-20T12:20:18.414Z,25.50
2019-06-20T12:22:46.903Z,25.10
2019-06-20T12:25:15.979Z,24.80
2019-06-20T12:27:45.447Z,24.80
2019-06-20T12:30:17.174Z,24.50
2019-06-20T12:32:46.807Z,24.40
2019-06-20T12:35:15.511Z,24.40
2019-06-20T12:37:45.188Z,24.50
2019-06-20T12:40:15.657Z,24.50
2019-06-20T12:42:44.878Z,24.40
2019-06-20T12:45:15.499Z,24.30
2019-06-20T12:47:45.930Z,24.50
2019-06-20T12:50:15.185Z,24.40
2019-06-20T12:52:45.443Z,24.40
2019-06-20T12:55:14.396Z,24.60
2019-06-20T12:57:44.190Z,24.80
2019-06-20T13:00:14.660Z,24.60
2019-06-20T13:02:43.796Z,24.90
2019-06-20T13:05:14.584Z,24.60
2019-06-20T13:07:44.267Z,24.50
2019-06-20T13:10:14.106Z,24.30
2019-06-20T13:12:43.096Z,24.40
2019-06-20T13:15:13.264Z,24.60
2019-06-20T13:17:43.142Z,24.60
2019-06-20T13:20:12.991Z,24.60
2019-06-20T13:22:42.843Z,24.80
2019-06-20T13:25:12.011Z,25.00
2019-06-20T13:27:41.092Z,25.30
2019-06-20T13:30:10.267Z,25.30
2019-06-20T13:32:40.122Z,25.70
2019-06-20T13:35:10.177Z,25.60
2019-06-20T13:37:40.201Z,25.50
2019-06-20T13:40:11.225Z,25.40
2019-06-20T13:42:41.761Z,25.70
2019-06-20T13:45:18.244Z,25.80
2019-06-20T13:47:47.808Z,25.50
2019-06-20T13:50:16.977Z,25.40
2019-06-20T13:52:47.227Z,25.70
2019-06-20T13:55:16.046Z,25.40
2019-06-20T13:57:45.231Z,25.50
2019-06-20T14:00:16.596Z,25.80
2019-06-20T14:02:46.888Z,25.40
2019-06-20T14:05:16.452Z,25.20
2019-06-20T14:07:48.428Z,25.30
2019-06-20T14:10:17.651Z,25.30
2019-06-20T14:12:46.853Z,25.20
2019-06-20T14:15:16.402Z,25.10
2019-06-20T14:17:45.069Z,24.80
2019-06-20T14:20:13.750Z,24.60
2019-06-20T14:22:42.926Z,24.20
2019-06-20T14:25:11.977Z,24.00
2019-06-20T14:27:40.733Z,23.50
2019-06-20T14:30:09.935Z,23.40
2019-06-20T14:32:38.419Z,23.00
2019-06-20T14:35:07.351Z,22.90
2019-06-20T14:37:35.838Z,22.80
2019-06-20T14:40:06.782Z,22.70
2019-06-20T14:42:35.374Z,22.70
2019-06-20T14:45:06.949Z,22.70
2019-06-20T14:47:35.789Z,22.60
2019-06-20T14:50:07.735Z,22.60
2019-06-20T14:52:36.292Z,22.40
2019-06-20T14:55:09.300Z,22.40
2019-06-20T14:57:37.824Z,22.50
2019-06-20T15:00:10.195Z,22.40
2019-06-20T15:02:39.203Z,22.70
2019-06-20T15:05:15.814Z,22.90
2019-06-20T15:07:45.703Z,23.10
2019-06-20T15:10:15.870Z,23.40
2019-06-20T15:12:45.743Z,23.60
2019-06-20T15:15:15.985Z,23.80
2019-06-20T15:17:45.224Z,23.80
2019-06-20T15:20:15.504Z,23.90
2019-06-20T15:22:46.732Z,24.00
2019-06-20T15:25:14.885Z,23.80
2019-06-20T15:27:43.426Z,23.70
2019-06-20T15:30:12.434Z,23.70
2019-06-20T15:32:53.306Z,23.10
2019-06-20T15:35:11.542Z,23.00
2019-06-20T15:37:39.977Z,22.70
2019-06-20T15:40:08.883Z,22.50
2019-06-20T15:42:37.480Z,22.40
2019-06-20T15:45:08.160Z,22.20
2019-06-20T15:47:37.038Z,22.40
2019-06-20T15:50:09.187Z,22.70
2019-06-20T15:52:37.775Z,23.00
2019-06-20T15:55:06.614Z,23.80
2019-06-20T15:57:35.111Z,24.10
2019-06-20T16:00:11.727Z,24.70
2019-06-20T16:02:41.233Z,25.00
2019-06-20T16:05:10.541Z,24.90
2019-06-20T16:07:39.156Z,24.40
2019-06-20T16:10:09.434Z,24.40
2019-06-20T16:12:37.932Z,24.50
2019-06-20T16:15:11.049Z,24.20
2019-06-20T16:17:39.529Z,24.00
2019-06-20T16:20:09.329Z,23.70
2019-06-20T16:22:37.772Z,23.40
2019-06-20T16:25:07.274Z,23.20
2019-06-20T16:27:35.922Z,23.00
2019-06-20T16:30:06.760Z,22.90
2019-06-20T16:32:35.306Z,22.70
2019-06-20T16:35:06.791Z,22.60
2019-06-20T16:37:35.292Z,22.60
2019-06-20T16:40:05.735Z,22.60
2019-06-20T16:42:34.176Z,22.60
2019-06-20T16:45:02.812Z,22.50
2019-06-20T16:47:31.312Z,22.50
2019-06-20T16:49:59.933Z,22.50
2019-06-20T16:52:28.431Z,22.60
2019-06-20T16:54:56.900Z,22.80
2019-06-20T16:57:25.408Z,22.90
2019-06-20T16:59:53.953Z,22.90
2019-06-20T17:02:22.374Z,23.00
2019-06-20T17:04:50.943Z,22.70
2019-06-20T17:07:19.451Z,22.40
2019-06-20T17:09:48.383Z,22.10
2019-06-20T17:12:16.879Z,21.80
2019-06-20T17:14:45.432Z,21.40
2019-06-20T17:17:13.913Z,21.50
2019-06-20T17:19:45.079Z,21.50
2019-06-20T17:22:14.769Z,21.30
2019-06-20T17:24:43.237Z,21.30
2019-06-20T17:27:11.839Z,21.20
2019-06-20T17:29:40.354Z,21.20
2019-06-20T17:32:08.898Z,21.30
2019-06-20T17:34:37.315Z,21.40
2019-06-20T17:37:05.718Z,21.50
2019-06-20T17:39:34.239Z,21.70
2019-06-20T17:42:02.753Z,21.70
2019-06-20T17:44:31.245Z,21.50
2019-06-20T17:46:59.719Z,21.60
2019-06-20T17:49:28.484Z,21.40
2019-06-20T17:51:56.904Z,21.20
2019-06-20T17:54:25.431Z,21.00
2019-06-20T17:56:53.961Z,21.00
2019-06-20T17:59:22.938Z,21.00
2019-06-20T18:01:51.659Z,21.00
2019-06-20T18:04:20.135Z,21.10
2019-06-20T18:06:48.605Z,21.10
2019-06-20T18:09:17.212Z,20.90
2019-06-20T18:11:45.642Z,20.80
2019-06-20T18:14:14.092Z,20.70
2019-06-20T18:16:42.767Z,20.80
2019-06-20T18:19:11.183Z,20.90
2019-06-20T18:21:47.975Z,20.90
2019-06-20T18:24:16.532Z,20.90
2019-06-20T18:26:45.042Z,20.90
2019-06-20T18:29:13.557Z,20.70
2019-06-20T18:31:42.558Z,20.60
2019-06-20T18:34:28.899Z,20.50
2019-06-20T18:36:43.557Z,20.30
2019-06-20T18:39:12.161Z,20.30
2019-06-20T18:41:40.735Z,20.20
2019-06-20T18:44:09.252Z,20.30
2019-06-20T18:46:37.707Z,20.40
2019-06-20T18:49:06.179Z,20.30
2019-06-20T18:51:34.671Z,20.40
2019-06-20T18:54:03.121Z,20.40
2019-06-20T18:56:31.544Z,20.30
2019-06-20T18:59:00.016Z,20.30
2019-06-20T19:01:28.610Z,20.30
2019-06-20T19:03:57.075Z,20.20
2019-06-20T19:06:36.103Z,20.10
2019-06-20T19:09:01.635Z,20.00
2019-06-20T19:11:30.147Z,19.90
2019-06-20T19:13:58.589Z,19.80
2019-06-20T19:16:27.183Z,19.80
2019-06-20T19:18:55.920Z,19.70
2019-06-20T19:21:24.516Z,19.60
2019-06-20T19:23:55.317Z,19.50
2019-06-20T19:26:23.418Z,19.30
2019-06-20T19:28:52.007Z,19.30
2019-06-20T19:31:21.524Z,19.20
2019-06-20T19:33:52.107Z,19.20
2019-06-20T19:36:20.484Z,19.10
2019-06-20T19:38:49.102Z,19.00
2019-06-20T19:41:17.511Z,19.00
2019-06-20T19:43:45.979Z,19.00
2019-06-20T19:46:14.552Z,18.90
2019-06-20T19:48:43.337Z,18.80
2019-06-20T19:51:11.900Z,18.80
2019-06-20T19:53:40.657Z,18.80
2019-06-20T19:56:09.175Z,18.80
2019-06-20T19:58:37.712Z,18.80
2019-06-20T20:01:06.226Z,18.70
2019-06-20T20:03:34.786Z,18.70
2019-06-20T20:06:03.384Z,18.80
2019-06-20T20:08:31.956Z,18.70
2019-06-20T20:11:00.580Z,18.80
2019-06-20T20:13:29.237Z,18.80
2019-06-20T20:15:57.807Z,18.80
2019-06-20T20:18:26.269Z,18.80
2019-06-20T20:20:54.764Z,19.00
2019-06-20T20:23:23.271Z,19.10
2019-06-20T20:25:54.719Z,19.10
2019-06-20T20:28:23.631Z,19.20
2019-06-20T20:30:53.705Z,19.10
2019-06-20T20:33:22.328Z,19.10
2019-06-20T20:35:50.789Z,19.10
2019-06-20T20:38:19.440Z,19.00
2019-06-20T20:40:47.978Z,19.00
2019-06-20T20:43:16.539Z,18.90
2019-06-20T20:45:45.111Z,18.80
2019-06-20T20:48:13.747Z,18.70
2019-06-20T20:50:42.486Z,18.60
2019-06-20T20:53:11.395Z,18.40
2019-06-20T20:55:39.861Z,18.30
2019-06-20T20:58:08.352Z,18.20
2019-06-20T21:00:39.906Z,18.10
2019-06-20T21:03:08.367Z,18.00
2019-06-20T21:05:50.617Z,18.00
2019-06-20T21:08:07.000Z,17.80
2019-06-20T21:10:35.609Z,17.80
2019-06-20T21:13:04.254Z,17.70
2019-06-20T21:15:32.688Z,17.60
2019-06-20T21:18:01.336Z,17.50
2019-06-20T21:20:29.790Z,17.40
2019-06-20T21:25:26.378Z,17.20
2019-06-20T21:27:54.943Z,17.10
2019-06-20T21:30:23.713Z,17.00
2019-06-20T21:32:52.372Z,16.90
2019-06-20T21:35:21.009Z,16.80
2019-06-20T21:37:49.570Z,16.80
2019-06-20T21:40:18.390Z,16.80
2019-06-20T21:42:46.851Z,16.80
2019-06-20T21:45:15.946Z,16.70
2019-06-20T21:47:44.459Z,16.70
2019-06-20T21:50:15.032Z,16.70
2019-06-20T21:52:43.545Z,16.80
2019-06-20T21:55:18.779Z,16.80
2019-06-20T21:57:47.183Z,16.80
2019-06-20T22:00:38.695Z,16.70
2019-06-20T22:03:07.905Z,16.70
2019-06-20T22:05:36.411Z,16.70
2019-06-20T22:08:05.901Z,16.70
2019-06-20T22:10:34.459Z,16.60
2019-06-20T22:13:03.250Z,16.60
2019-06-20T22:15:31.797Z,16.60
2019-06-20T22:18:00.333Z,16.50
2019-06-20T22:20:29.005Z,16.50
2019-06-20T22:22:57.426Z,16.40
2019-06-20T22:25:26.135Z,16.40
2019-06-20T22:27:54.650Z,16.40
2019-06-20T22:30:39.316Z,16.40
2019-06-20T22:33:07.823Z,16.30
2019-06-20T22:35:37.636Z,16.30
2019-06-20T22:38:06.136Z,16.30
2019-06-20T22:40:34.671Z,16.30
2019-06-20T22:43:03.099Z,16.40
2019-06-20T22:45:31.691Z,16.40
2019-06-20T22:48:00.434Z,16.40
2019-06-20T22:50:28.890Z,16.40
2019-06-20T22:52:57.373Z,16.50
2019-06-20T22:55:25.995Z,16.50
2019-06-20T22:57:54.584Z,16.50
2019-06-20T23:00:23.144Z,16.50
2019-06-20T23:02:51.844Z,16.50
2019-06-20T23:05:20.527Z,16.50
2019-06-20T23:07:49.021Z,16.50
2019-06-20T23:10:18.003Z,16.40
2019-06-20T23:12:46.495Z,16.40
2019-06-20T23:15:15.054Z,16.30
2019-06-20T23:17:43.530Z,16.20
2019-06-20T23:20:15.140Z,16.20
2019-06-20T23:22:43.890Z,16.10
2019-06-20T23:25:13.849Z,16.00
2019-06-20T23:27:42.380Z,16.00
2019-06-20T23:30:16.328Z,15.90
2019-06-20T23:32:45.578Z,15.90
2019-06-20T23:35:15.549Z,15.80
2019-06-20T23:37:44.126Z,15.80
2019-06-20T23:40:14.028Z,15.80
2019-06-20T23:42:42.563Z,15.80
2019-06-20T23:45:12.431Z,15.80
2019-06-20T23:47:41.052Z,15.90
2019-06-20T23:50:18.709Z,15.90
2019-06-20T23:53:01.593Z,15.90
2019-06-20T23:55:30.233Z,15.90
2019-06-20T23:57:58.766Z,15.90
